sensor_id;sensor_type;location;lat;lon;timestamp;P1;durP1;ratioP1;P2;durP2;ratioP2
13439;SDS011;6792;57.698;11.946;2022-10-16T00:01:41;13.03;;;5.10;;
13439;SDS011;6792;57.698;11.946;2022-10-16T00:04:10;10.98;;;4.28;;
13439;SDS011;6792;57.698;11.946;2022-10-16T00:06:40;11.73;;;4.15;;
13439;SDS011;6792;57.698;11.946;2022-10-16T00:09:09;10.53;;;3.90;;
13439;SDS011;6792;57.698;11.946;2022-10-16T00:11:38;11.22;;;3.85;;
13439;SDS011;6792;57.698;11.946;2022-10-16T00:14:10;10.38;;;3.72;;
13439;SDS011;6792;57.698;11.946;2022-10-16T00:16:40;9.05;;;3.55;;
13439;SDS011;6792;57.698;11.946;2022-10-16T00:19:09;10.48;;;3.52;;
13439;SDS011;6792;57.698;11.946;2022-10-16T00:21:39;7.90;;;2.80;;
13439;SDS011;6792;57.698;11.946;2022-10-16T00:24:08;10.93;;;2.55;;
13439;SDS011;6792;57.698;11.946;2022-10-16T00:26:38;6.83;;;2.85;;
13439;SDS011;6792;57.698;11.946;2022-10-16T00:29:07;7.08;;;2.83;;
13439;SDS011;6792;57.698;11.946;2022-10-16T00:31:36;8.40;;;2.83;;
13439;SDS011;6792;57.698;11.946;2022-10-16T00:34:05;7.50;;;2.10;;
13439;SDS011;6792;57.698;11.946;2022-10-16T00:36:34;8.55;;;2.83;;
13439;SDS011;6792;57.698;11.946;2022-10-16T00:39:03;6.30;;;2.05;;
13439;SDS011;6792;57.698;11.946;2022-10-16T00:41:32;5.55;;;2.05;;
13439;SDS011;6792;57.698;11.946;2022-10-16T00:44:03;7.00;;;2.10;;
13439;SDS011;6792;57.698;11.946;2022-10-16T00:46:50;4.15;;;2.00;;
13439;SDS011;6792;57.698;11.946;2022-10-16T00:49:19;13.70;;;2.33;;
13439;SDS011;6792;57.698;11.946;2022-10-16T00:51:50;7.55;;;2.00;;
13439;SDS011;6792;57.698;11.946;2022-10-16T00:54:23;7.03;;;2.02;;
13439;SDS011;6792;57.698;11.946;2022-10-16T00:56:52;11.35;;;2.37;;
13439;SDS011;6792;57.698;11.946;2022-10-16T00:59:24;6.75;;;1.42;;
13439;SDS011;6792;57.698;11.946;2022-10-16T01:01:55;8.60;;;2.00;;
13439;SDS011;6792;57.698;11.946;2022-10-16T01:04:26;7.15;;;1.70;;
13439;SDS011;6792;57.698;11.946;2022-10-16T01:06:57;10.05;;;1.80;;
13439;SDS011;6792;57.698;11.946;2022-10-16T01:09:29;9.40;;;2.22;;
13439;SDS011;6792;57.698;11.946;2022-10-16T01:12:03;5.95;;;1.67;;
13439;SDS011;6792;57.698;11.946;2022-10-16T01:14:37;8.78;;;1.95;;
13439;SDS011;6792;57.698;11.946;2022-10-16T01:17:08;5.92;;;1.72;;
13439;SDS011;6792;57.698;11.946;2022-10-16T01:19:44;7.58;;;1.77;;
13439;SDS011;6792;57.698;11.946;2022-10-16T01:22:14;9.85;;;2.40;;
13439;SDS011;6792;57.698;11.946;2022-10-16T01:24:44;9.33;;;1.65;;
13439;SDS011;6792;57.698;11.946;2022-10-16T07:41:45;12.65;;;1.75;;
13439;SDS011;6792;57.698;11.946;2022-10-16T07:44:15;6.15;;;1.40;;
13439;SDS011;6792;57.698;11.946;2022-10-16T07:46:44;7.17;;;1.45;;
13439;SDS011;6792;57.698;11.946;2022-10-16T07:49:13;6.33;;;1.72;;
13439;SDS011;6792;57.698;11.946;2022-10-16T07:51:42;6.05;;;1.55;;
13439;SDS011;6792;57.698;11.946;2022-10-16T07:54:10;10.20;;;1.90;;
13439;SDS011;6792;57.698;11.946;2022-10-16T07:56:39;9.23;;;1.82;;
13439;SDS011;6792;57.698;11.946;2022-10-16T07:59:08;9.48;;;2.12;;
13439;SDS011;6792;57.698;11.946;2022-10-16T08:01:37;10.10;;;1.70;;
13439;SDS011;6792;57.698;11.946;2022-10-16T08:04:08;17.65;;;1.87;;
13439;SDS011;6792;57.698;11.946;2022-10-16T08:06:38;8.43;;;1.80;;
13439;SDS011;6792;57.698;11.946;2022-10-16T08:09:07;8.80;;;1.70;;
13439;SDS011;6792;57.698;11.946;2022-10-16T08:11:36;8.05;;;1.90;;
13439;SDS011;6792;57.698;11.946;2022-10-16T08:14:05;9.53;;;1.95;;
13439;SDS011;6792;57.698;11.946;2022-10-16T08:16:34;8.15;;;1.55;;
13439;SDS011;6792;57.698;11.946;2022-10-16T08:19:03;8.65;;;2.22;;
13439;SDS011;6792;57.698;11.946;2022-10-16T08:21:32;13.70;;;2.17;;
13439;SDS011;6792;57.698;11.946;2022-10-16T08:24:01;10.10;;;2.10;;
13439;SDS011;6792;57.698;11.946;2022-10-16T08:26:30;9.73;;;2.37;;
13439;SDS011;6792;57.698;11.946;2022-10-16T08:28:59;14.07;;;2.30;;
13439;SDS011;6792;57.698;11.946;2022-10-16T08:31:27;7.55;;;1.90;;
13439;SDS011;6792;57.698;11.946;2022-10-16T08:33:56;8.95;;;2.47;;
13439;SDS011;6792;57.698;11.946;2022-10-16T08:36:25;13.75;;;2.52;;
13439;SDS011;6792;57.698;11.946;2022-10-16T08:38:54;5.40;;;1.85;;
13439;SDS011;6792;57.698;11.946;2022-10-16T08:41:27;14.10;;;1.85;;
13439;SDS011;6792;57.698;11.946;2022-10-16T08:44:09;11.53;;;2.50;;
13439;SDS011;6792;57.698;11.946;2022-10-16T08:46:44;10.85;;;2.12;;
13439;SDS011;6792;57.698;11.946;2022-10-16T08:49:15;7.37;;;2.00;;
13439;SDS011;6792;57.698;11.946;2022-10-16T08:51:44;7.42;;;1.77;;
13439;SDS011;6792;57.698;11.946;2022-10-16T08:54:18;10.48;;;2.27;;
13439;SDS011;6792;57.698;11.946;2022-10-16T08:56:50;12.70;;;2.37;;
13439;SDS011;6792;57.698;11.946;2022-10-16T08:59:22;8.80;;;2.12;;
13439;SDS011;6792;57.698;11.946;2022-10-16T09:01:51;12.47;;;2.05;;
13439;SDS011;6792;57.698;11.946;2022-10-16T09:04:26;8.90;;;1.95;;
13439;SDS011;6792;57.698;11.946;2022-10-16T09:07:10;9.03;;;2.35;;
13439;SDS011;6792;57.698;11.946;2022-10-16T09:09:48;8.88;;;2.15;;
13439;SDS011;6792;57.698;11.946;2022-10-16T09:12:20;10.55;;;2.10;;
13439;SDS011;6792;57.698;11.946;2022-10-16T09:14:55;12.95;;;2.22;;
13439;SDS011;6792;57.698;11.946;2022-10-16T09:17:32;15.35;;;2.50;;
13439;SDS011;6792;57.698;11.946;2022-10-16T09:20:12;11.70;;;2.20;;
13439;SDS011;6792;57.698;11.946;2022-10-16T09:22:43;12.73;;;2.52;;
13439;SDS011;6792;57.698;11.946;2022-10-16T09:25:14;19.80;;;3.17;;
13439;SDS011;6792;57.698;11.946;2022-10-16T09:27:44;19.48;;;2.75;;
13439;SDS011;6792;57.698;11.946;2022-10-16T09:30:16;8.45;;;2.00;;
13439;SDS011;6792;57.698;11.946;2022-10-16T09:32:48;11.63;;;2.20;;
13439;SDS011;6792;57.698;11.946;2022-10-16T09:35:20;12.58;;;2.05;;
13439;SDS011;6792;57.698;11.946;2022-10-16T09:37:51;5.75;;;1.42;;
13439;SDS011;6792;57.698;11.946;2022-10-16T09:40:25;12.33;;;2.33;;
13439;SDS011;6792;57.698;11.946;2022-10-16T09:42:57;13.48;;;2.42;;
13439;SDS011;6792;57.698;11.946;2022-10-16T09:45:30;12.78;;;2.60;;
13439;SDS011;6792;57.698;11.946;2022-10-16T09:48:01;9.85;;;2.85;;
13439;SDS011;6792;57.698;11.946;2022-10-16T09:50:38;13.65;;;2.30;;
13439;SDS011;6792;57.698;11.946;2022-10-16T09:53:10;12.63;;;1.75;;
13439;SDS011;6792;57.698;11.946;2022-10-16T09:55:50;14.75;;;2.55;;
13439;SDS011;6792;57.698;11.946;2022-10-16T09:58:21;12.07;;;2.02;;
13439;SDS011;6792;57.698;11.946;2022-10-16T10:00:52;15.35;;;2.05;;
13439;SDS011;6792;57.698;11.946;2022-10-16T10:03:32;14.15;;;3.20;;
13439;SDS011;6792;57.698;11.946;2022-10-16T10:06:05;8.73;;;2.83;;
13439;SDS011;6792;57.698;11.946;2022-10-16T10:08:37;11.97;;;2.25;;
13439;SDS011;6792;57.698;11.946;2022-10-16T10:11:06;16.87;;;1.82;;
13439;SDS011;6792;57.698;11.946;2022-10-16T10:13:35;12.47;;;2.30;;
13439;SDS011;6792;57.698;11.946;2022-10-16T10:16:05;9.70;;;2.33;;
13439;SDS011;6792;57.698;11.946;2022-10-16T10:18:34;14.25;;;1.77;;
13439;SDS011;6792;57.698;11.946;2022-10-16T10:21:03;12.93;;;2.00;;
13439;SDS011;6792;57.698;11.946;2022-10-16T10:23:41;10.03;;;2.25;;
13439;SDS011;6792;57.698;11.946;2022-10-16T10:26:10;12.37;;;2.20;;
13439;SDS011;6792;57.698;11.946;2022-10-16T10:28:54;15.48;;;2.22;;
13439;SDS011;6792;57.698;11.946;2022-10-16T10:31:27;12.93;;;2.30;;
13439;SDS011;6792;57.698;11.946;2022-10-16T10:33:59;12.95;;;1.90;;
13439;SDS011;6792;57.698;11.946;2022-10-16T10:36:32;13.85;;;2.17;;
13439;SDS011;6792;57.698;11.946;2022-10-16T10:39:04;14.73;;;2.15;;
13439;SDS011;6792;57.698;11.946;2022-10-16T10:41:53;13.20;;;2.60;;
13439;SDS011;6792;57.698;11.946;2022-10-16T10:44:37;9.35;;;1.87;;
13439;SDS011;6792;57.698;11.946;2022-10-16T10:47:14;13.30;;;2.60;;
13439;SDS011;6792;57.698;11.946;2022-10-16T10:49:48;10.30;;;2.52;;
13439;SDS011;6792;57.698;11.946;2022-10-16T10:52:31;14.90;;;2.30;;
13439;SDS011;6792;57.698;11.946;2022-10-16T10:55:10;8.33;;;1.47;;
13439;SDS011;6792;57.698;11.946;2022-10-16T10:57:48;14.28;;;2.15;;
13439;SDS011;6792;57.698;11.946;2022-10-16T11:00:23;7.60;;;1.92;;
13439;SDS011;6792;57.698;11.946;2022-10-16T11:02:55;18.27;;;2.55;;
13439;SDS011;6792;57.698;11.946;2022-10-16T11:05:40;8.90;;;2.52;;
13439;SDS011;6792;57.698;11.946;2022-10-16T11:08:13;14.33;;;3.08;;
13439;SDS011;6792;57.698;11.946;2022-10-16T11:10:45;11.60;;;2.75;;
13439;SDS011;6792;57.698;11.946;2022-10-16T11:13:23;17.60;;;2.80;;
13439;SDS011;6792;57.698;11.946;2022-10-16T11:15:57;12.33;;;2.95;;
13439;SDS011;6792;57.698;11.946;2022-10-16T11:18:30;16.85;;;2.42;;
13439;SDS011;6792;57.698;11.946;2022-10-16T11:21:04;15.35;;;2.72;;
13439;SDS011;6792;57.698;11.946;2022-10-16T11:23:37;14.45;;;2.75;;
13439;SDS011;6792;57.698;11.946;2022-10-16T11:26:10;13.10;;;2.72;;
13439;SDS011;6792;57.698;11.946;2022-10-16T11:28:42;20.23;;;3.47;;
13439;SDS011;6792;57.698;11.946;2022-10-16T11:31:14;12.58;;;2.65;;
13439;SDS011;6792;57.698;11.946;2022-10-16T11:33:47;13.38;;;2.50;;
13439;SDS011;6792;57.698;11.946;2022-10-16T11:36:19;8.75;;;2.47;;
13439;SDS011;6792;57.698;11.946;2022-10-16T11:38:52;14.35;;;2.55;;
13439;SDS011;6792;57.698;11.946;2022-10-16T11:41:26;15.05;;;2.50;;
13439;SDS011;6792;57.698;11.946;2022-10-16T11:44:00;14.07;;;3.30;;
13439;SDS011;6792;57.698;11.946;2022-10-16T11:46:36;13.93;;;2.47;;
13439;SDS011;6792;57.698;11.946;2022-10-16T11:49:09;11.63;;;2.40;;
13439;SDS011;6792;57.698;11.946;2022-10-16T11:51:41;16.50;;;2.87;;
13439;SDS011;6792;57.698;11.946;2022-10-16T11:54:16;14.98;;;2.50;;
13439;SDS011;6792;57.698;11.946;2022-10-16T11:56:49;11.75;;;2.37;;
13439;SDS011;6792;57.698;11.946;2022-10-16T11:59:22;12.37;;;2.22;;
13439;SDS011;6792;57.698;11.946;2022-10-16T12:01:53;5.80;;;1.10;;
13439;SDS011;6792;57.698;11.946;2022-10-16T12:04:27;6.30;;;0.98;;
13439;SDS011;6792;57.698;11.946;2022-10-16T12:07:01;9.58;;;1.50;;
13439;SDS011;6792;57.698;11.946;2022-10-16T12:09:32;10.98;;;2.12;;
13439;SDS011;6792;57.698;11.946;2022-10-16T12:12:04;14.33;;;2.60;;
13439;SDS011;6792;57.698;11.946;2022-10-16T12:14:59;17.17;;;2.95;;
13439;SDS011;6792;57.698;11.946;2022-10-16T12:17:34;20.90;;;2.87;;
13439;SDS011;6792;57.698;11.946;2022-10-16T12:20:20;15.85;;;2.92;;
13439;SDS011;6792;57.698;11.946;2022-10-16T12:22:54;16.55;;;2.50;;
13439;SDS011;6792;57.698;11.946;2022-10-16T12:25:26;16.00;;;2.75;;
13439;SDS011;6792;57.698;11.946;2022-10-16T12:28:04;20.08;;;2.60;;
13439;SDS011;6792;57.698;11.946;2022-10-16T12:30:35;17.12;;;2.45;;
13439;SDS011;6792;57.698;11.946;2022-10-16T12:33:05;16.25;;;2.37;;
13439;SDS011;6792;57.698;11.946;2022-10-16T12:35:44;13.48;;;2.08;;
13439;SDS011;6792;57.698;11.946;2022-10-16T12:38:16;20.75;;;2.35;;
13439;SDS011;6792;57.698;11.946;2022-10-16T12:40:47;17.25;;;2.60;;
13439;SDS011;6792;57.698;11.946;2022-10-16T12:43:26;10.30;;;1.90;;
13439;SDS011;6792;57.698;11.946;2022-10-16T12:46:01;10.05;;;2.25;;
13439;SDS011;6792;57.698;11.946;2022-10-16T12:48:33;15.23;;;2.12;;
13439;SDS011;6792;57.698;11.946;2022-10-16T12:51:10;17.52;;;2.37;;
13439;SDS011;6792;57.698;11.946;2022-10-16T12:53:39;15.43;;;2.33;;
13439;SDS011;6792;57.698;11.946;2022-10-16T12:56:11;9.63;;;1.70;;
13439;SDS011;6792;57.698;11.946;2022-10-16T12:58:51;17.60;;;1.50;;
13439;SDS011;6792;57.698;11.946;2022-10-16T13:01:28;8.20;;;1.55;;
13439;SDS011;6792;57.698;11.946;2022-10-16T13:04:10;19.80;;;1.62;;
13439;SDS011;6792;57.698;11.946;2022-10-16T13:10:19;12.82;;;1.95;;
13439;SDS011;6792;57.698;11.946;2022-10-16T13:12:54;8.35;;;1.32;;
13439;SDS011;6792;57.698;11.946;2022-10-16T13:15:38;4.85;;;0.90;;
13439;SDS011;6792;57.698;11.946;2022-10-16T13:18:12;8.03;;;1.67;;
13439;SDS011;6792;57.698;11.946;2022-10-16T13:20:53;9.63;;;1.67;;
13439;SDS011;6792;57.698;11.946;2022-10-16T13:23:26;4.67;;;1.10;;
13439;SDS011;6792;57.698;11.946;2022-10-16T13:26:01;10.03;;;1.47;;
13439;SDS011;6792;57.698;11.946;2022-10-16T13:28:35;8.08;;;1.05;;
13439;SDS011;6792;57.698;11.946;2022-10-16T13:31:09;3.95;;;1.30;;
13439;SDS011;6792;57.698;11.946;2022-10-16T13:33:43;12.80;;;1.70;;
13439;SDS011;6792;57.698;11.946;2022-10-16T13:36:19;9.28;;;1.50;;
13439;SDS011;6792;57.698;11.946;2022-10-16T13:38:59;8.48;;;1.62;;
13439;SDS011;6792;57.698;11.946;2022-10-16T13:41:31;4.45;;;0.95;;
13439;SDS011;6792;57.698;11.946;2022-10-16T13:44:00;11.03;;;1.32;;
13439;SDS011;6792;57.698;11.946;2022-10-16T13:46:29;9.55;;;1.50;;
13439;SDS011;6792;57.698;11.946;2022-10-16T13:48:59;8.40;;;1.45;;
13439;SDS011;6792;57.698;11.946;2022-10-16T13:51:30;8.08;;;1.25;;
13439;SDS011;6792;57.698;11.946;2022-10-16T13:54:00;13.75;;;1.75;;
13439;SDS011;6792;57.698;11.946;2022-10-16T13:56:29;6.25;;;1.15;;
13439;SDS011;6792;57.698;11.946;2022-10-16T13:59:00;11.30;;;1.62;;
13439;SDS011;6792;57.698;11.946;2022-10-16T14:01:30;13.28;;;1.65;;
13439;SDS011;6792;57.698;11.946;2022-10-16T14:04:02;9.93;;;1.50;;
13439;SDS011;6792;57.698;11.946;2022-10-16T14:06:33;9.18;;;1.75;;
13439;SDS011;6792;57.698;11.946;2022-10-16T14:09:07;11.45;;;2.08;;
13439;SDS011;6792;57.698;11.946;2022-10-16T14:11:42;11.48;;;1.35;;
13439;SDS011;6792;57.698;11.946;2022-10-16T14:14:11;9.15;;;2.00;;
13439;SDS011;6792;57.698;11.946;2022-10-16T14:16:42;9.48;;;1.45;;
13439;SDS011;6792;57.698;11.946;2022-10-16T14:19:14;11.30;;;1.87;;
13439;SDS011;6792;57.698;11.946;2022-10-16T14:21:46;8.55;;;1.70;;
13439;SDS011;6792;57.698;11.946;2022-10-16T14:24:22;12.00;;;1.72;;
13439;SDS011;6792;57.698;11.946;2022-10-16T14:26:54;14.70;;;2.30;;
13439;SDS011;6792;57.698;11.946;2022-10-16T14:29:23;13.62;;;2.30;;
13439;SDS011;6792;57.698;11.946;2022-10-16T14:31:54;8.88;;;1.82;;
13439;SDS011;6792;57.698;11.946;2022-10-16T14:34:26;11.12;;;1.98;;
13439;SDS011;6792;57.698;11.946;2022-10-16T14:36:59;12.50;;;1.80;;
13439;SDS011;6792;57.698;11.946;2022-10-16T14:39:31;13.62;;;1.70;;
13439;SDS011;6792;57.698;11.946;2022-10-16T14:42:01;9.68;;;1.67;;
13439;SDS011;6792;57.698;11.946;2022-10-16T14:44:31;13.75;;;1.75;;
13439;SDS011;6792;57.698;11.946;2022-10-16T14:47:08;8.08;;;1.85;;
13439;SDS011;6792;57.698;11.946;2022-10-16T14:49:41;11.00;;;1.85;;
13439;SDS011;6792;57.698;11.946;2022-10-16T14:52:11;14.65;;;2.20;;
13439;SDS011;6792;57.698;11.946;2022-10-16T14:54:41;27.95;;;7.42;;
13439;SDS011;6792;57.698;11.946;2022-10-16T14:57:16;20.52;;;5.33;;
13439;SDS011;6792;57.698;11.946;2022-10-16T14:59:47;14.95;;;2.45;;
13439;SDS011;6792;57.698;11.946;2022-10-16T15:02:20;17.67;;;5.40;;
13439;SDS011;6792;57.698;11.946;2022-10-16T15:05:10;11.43;;;2.12;;
13439;SDS011;6792;57.698;11.946;2022-10-16T15:07:43;14.50;;;3.27;;
13439;SDS011;6792;57.698;11.946;2022-10-16T15:10:13;15.45;;;3.00;;
13439;SDS011;6792;57.698;11.946;2022-10-16T15:12:43;19.07;;;4.05;;
13439;SDS011;6792;57.698;11.946;2022-10-16T15:15:21;15.08;;;3.40;;
13439;SDS011;6792;57.698;11.946;2022-10-16T15:17:54;19.15;;;3.65;;
13439;SDS011;6792;57.698;11.946;2022-10-16T15:20:26;13.32;;;3.30;;
13439;SDS011;6792;57.698;11.946;2022-10-16T15:22:57;19.35;;;3.75;;
13439;SDS011;6792;57.698;11.946;2022-10-16T15:25:29;12.60;;;2.77;;
13439;SDS011;6792;57.698;11.946;2022-10-16T15:28:02;12.65;;;2.30;;
13439;SDS011;6792;57.698;11.946;2022-10-16T15:30:32;12.18;;;2.47;;
13439;SDS011;6792;57.698;11.946;2022-10-16T15:33:02;13.90;;;2.70;;
13439;SDS011;6792;57.698;11.946;2022-10-16T15:35:33;11.08;;;2.00;;
13439;SDS011;6792;57.698;11.946;2022-10-16T15:38:02;8.78;;;1.82;;
13439;SDS011;6792;57.698;11.946;2022-10-16T15:40:32;12.63;;;2.27;;
13439;SDS011;6792;57.698;11.946;2022-10-16T15:43:01;11.28;;;2.12;;
13439;SDS011;6792;57.698;11.946;2022-10-16T15:45:32;7.80;;;1.60;;
13439;SDS011;6792;57.698;11.946;2022-10-16T15:48:02;8.18;;;2.27;;
13439;SDS011;6792;57.698;11.946;2022-10-16T15:50:32;10.48;;;1.52;;
13439;SDS011;6792;57.698;11.946;2022-10-16T15:53:01;16.15;;;2.30;;
13439;SDS011;6792;57.698;11.946;2022-10-16T15:55:31;9.58;;;2.20;;
13439;SDS011;6792;57.698;11.946;2022-10-16T15:58:02;10.72;;;1.82;;
13439;SDS011;6792;57.698;11.946;2022-10-16T16:00:32;12.33;;;2.40;;
13439;SDS011;6792;57.698;11.946;2022-10-16T16:03:05;13.95;;;2.17;;
13439;SDS011;6792;57.698;11.946;2022-10-16T16:05:36;12.35;;;2.12;;
13439;SDS011;6792;57.698;11.946;2022-10-16T16:08:09;13.85;;;2.17;;
13439;SDS011;6792;57.698;11.946;2022-10-16T16:10:39;13.03;;;2.05;;
13439;SDS011;6792;57.698;11.946;2022-10-16T16:13:08;10.95;;;1.98;;
13439;SDS011;6792;57.698;11.946;2022-10-16T16:15:39;9.50;;;2.15;;
13439;SDS011;6792;57.698;11.946;2022-10-16T16:18:08;9.65;;;1.65;;
13439;SDS011;6792;57.698;11.946;2022-10-16T16:20:38;15.15;;;1.70;;
13439;SDS011;6792;57.698;11.946;2022-10-16T16:23:07;15.23;;;2.25;;
13439;SDS011;6792;57.698;11.946;2022-10-16T16:25:37;8.58;;;1.62;;
13439;SDS011;6792;57.698;11.946;2022-10-16T16:28:06;11.25;;;1.57;;
13439;SDS011;6792;57.698;11.946;2022-10-16T16:30:37;8.88;;;1.70;;
13439;SDS011;6792;57.698;11.946;2022-10-16T16:33:06;6.50;;;1.47;;
13439;SDS011;6792;57.698;11.946;2022-10-16T16:35:36;14.55;;;2.27;;
13439;SDS011;6792;57.698;11.946;2022-10-16T16:38:05;9.23;;;2.10;;
13439;SDS011;6792;57.698;11.946;2022-10-16T16:40:34;10.23;;;1.77;;
13439;SDS011;6792;57.698;11.946;2022-10-16T16:43:03;14.13;;;1.95;;
13439;SDS011;6792;57.698;11.946;2022-10-16T16:45:45;16.20;;;2.25;;
13439;SDS011;6792;57.698;11.946;2022-10-16T16:48:15;12.33;;;1.60;;
13439;SDS011;6792;57.698;11.946;2022-10-16T16:50:44;12.18;;;1.62;;
13439;SDS011;6792;57.698;11.946;2022-10-16T16:53:13;17.20;;;3.27;;
13439;SDS011;6792;57.698;11.946;2022-10-16T16:55:42;11.88;;;2.22;;
13439;SDS011;6792;57.698;11.946;2022-10-16T16:58:11;14.40;;;2.20;;
13439;SDS011;6792;57.698;11.946;2022-10-16T17:00:45;14.40;;;2.10;;
13439;SDS011;6792;57.698;11.946;2022-10-16T17:03:14;12.30;;;1.90;;
13439;SDS011;6792;57.698;11.946;2022-10-16T17:05:43;9.68;;;1.50;;
13439;SDS011;6792;57.698;11.946;2022-10-16T17:08:22;12.03;;;1.87;;
13439;SDS011;6792;57.698;11.946;2022-10-16T17:10:51;10.68;;;2.15;;
13439;SDS011;6792;57.698;11.946;2022-10-16T17:13:21;17.62;;;2.40;;
13439;SDS011;6792;57.698;11.946;2022-10-16T17:15:51;15.15;;;2.30;;
13439;SDS011;6792;57.698;11.946;2022-10-16T17:18:21;9.00;;;1.77;;
13439;SDS011;6792;57.698;11.946;2022-10-16T17:20:51;10.15;;;1.75;;
13439;SDS011;6792;57.698;11.946;2022-10-16T17:23:19;9.18;;;2.05;;
13439;SDS011;6792;57.698;11.946;2022-10-16T17:25:48;9.55;;;1.87;;
13439;SDS011;6792;57.698;11.946;2022-10-16T17:28:18;13.45;;;2.27;;
13439;SDS011;6792;57.698;11.946;2022-10-16T17:30:47;11.35;;;1.60;;
13439;SDS011;6792;57.698;11.946;2022-10-16T17:33:16;12.10;;;1.90;;
13439;SDS011;6792;57.698;11.946;2022-10-16T17:35:45;11.50;;;1.90;;
13439;SDS011;6792;57.698;11.946;2022-10-16T17:38:16;14.85;;;2.37;;
13439;SDS011;6792;57.698;11.946;2022-10-16T17:40:45;12.05;;;2.33;;
13439;SDS011;6792;57.698;11.946;2022-10-16T17:43:14;15.50;;;2.37;;
13439;SDS011;6792;57.698;11.946;2022-10-16T17:45:43;17.23;;;2.33;;
13439;SDS011;6792;57.698;11.946;2022-10-16T17:48:12;10.40;;;2.08;;
13439;SDS011;6792;57.698;11.946;2022-10-16T17:50:42;6.47;;;1.77;;
13439;SDS011;6792;57.698;11.946;2022-10-16T17:53:11;15.80;;;2.50;;
13439;SDS011;6792;57.698;11.946;2022-10-16T17:55:40;12.50;;;2.27;;
13439;SDS011;6792;57.698;11.946;2022-10-16T17:58:09;27.22;;;2.58;;
13439;SDS011;6792;57.698;11.946;2022-10-16T18:00:39;17.12;;;2.47;;
13439;SDS011;6792;57.698;11.946;2022-10-16T18:03:08;28.95;;;3.22;;
13439;SDS011;6792;57.698;11.946;2022-10-16T18:05:37;17.37;;;2.30;;
13439;SDS011;6792;57.698;11.946;2022-10-16T18:08:06;18.75;;;2.12;;
13439;SDS011;6792;57.698;11.946;2022-10-16T18:10:35;20.85;;;2.72;;
13439;SDS011;6792;57.698;11.946;2022-10-16T18:13:05;14.23;;;2.75;;
13439;SDS011;6792;57.698;11.946;2022-10-16T18:15:34;16.20;;;2.55;;
13439;SDS011;6792;57.698;11.946;2022-10-16T18:18:03;12.55;;;2.08;;
13439;SDS011;6792;57.698;11.946;2022-10-16T18:20:32;14.13;;;2.12;;
13439;SDS011;6792;57.698;11.946;2022-10-16T18:23:01;14.75;;;2.30;;
13439;SDS011;6792;57.698;11.946;2022-10-16T18:25:30;11.15;;;2.20;;
13439;SDS011;6792;57.698;11.946;2022-10-16T18:27:59;18.95;;;2.33;;
13439;SDS011;6792;57.698;11.946;2022-10-16T18:30:28;14.78;;;1.82;;
13439;SDS011;6792;57.698;11.946;2022-10-16T18:32:57;13.50;;;1.72;;
13439;SDS011;6792;57.698;11.946;2022-10-16T18:35:26;17.15;;;1.77;;
13439;SDS011;6792;57.698;11.946;2022-10-16T18:37:55;11.63;;;1.85;;
13439;SDS011;6792;57.698;11.946;2022-10-16T18:40:26;12.43;;;2.02;;
13439;SDS011;6792;57.698;11.946;2022-10-16T18:42:54;11.80;;;1.82;;
13439;SDS011;6792;57.698;11.946;2022-10-16T18:45:23;6.92;;;1.52;;
13439;SDS011;6792;57.698;11.946;2022-10-16T18:50:40;6.95;;;1.40;;
13439;SDS011;6792;57.698;11.946;2022-10-16T18:53:09;8.48;;;1.30;;
13439;SDS011;6792;57.698;11.946;2022-10-16T18:55:38;11.43;;;1.70;;
13439;SDS011;6792;57.698;11.946;2022-10-16T18:58:07;10.55;;;1.65;;
13439;SDS011;6792;57.698;11.946;2022-10-16T19:00:36;8.90;;;1.65;;
13439;SDS011;6792;57.698;11.946;2022-10-16T19:03:07;8.13;;;1.65;;
13439;SDS011;6792;57.698;11.946;2022-10-16T19:05:36;13.65;;;1.70;;
13439;SDS011;6792;57.698;11.946;2022-10-16T19:08:05;10.55;;;1.90;;
13439;SDS011;6792;57.698;11.946;2022-10-16T19:10:35;8.03;;;1.37;;
13439;SDS011;6792;57.698;11.946;2022-10-16T19:13:05;12.07;;;1.55;;
13439;SDS011;6792;57.698;11.946;2022-10-16T19:15:34;12.10;;;1.65;;
13439;SDS011;6792;57.698;11.946;2022-10-16T19:18:08;17.57;;;2.33;;
13439;SDS011;6792;57.698;11.946;2022-10-16T19:20:37;13.83;;;1.65;;
13439;SDS011;6792;57.698;11.946;2022-10-16T19:23:06;9.75;;;1.45;;
13439;SDS011;6792;57.698;11.946;2022-10-16T19:25:36;7.80;;;1.42;;
13439;SDS011;6792;57.698;11.946;2022-10-16T19:28:05;5.25;;;0.90;;
13439;SDS011;6792;57.698;11.946;2022-10-16T19:30:35;10.68;;;1.98;;
13439;SDS011;6792;57.698;11.946;2022-10-16T19:33:05;13.13;;;1.60;;
13439;SDS011;6792;57.698;11.946;2022-10-16T19:35:34;12.25;;;1.67;;
13439;SDS011;6792;57.698;11.946;2022-10-16T19:38:03;16.82;;;1.60;;
13439;SDS011;6792;57.698;11.946;2022-10-16T19:40:32;12.58;;;1.70;;
13439;SDS011;6792;57.698;11.946;2022-10-16T19:43:01;8.30;;;1.00;;
13439;SDS011;6792;57.698;11.946;2022-10-16T19:45:30;4.50;;;1.35;;
13439;SDS011;6792;57.698;11.946;2022-10-16T19:47:59;11.95;;;1.60;;
13439;SDS011;6792;57.698;11.946;2022-10-16T19:50:28;10.23;;;1.80;;
13439;SDS011;6792;57.698;11.946;2022-10-16T19:52:57;15.95;;;2.12;;
13439;SDS011;6792;57.698;11.946;2022-10-16T19:55:26;15.23;;;1.90;;
13439;SDS011;6792;57.698;11.946;2022-10-16T19:58:00;7.58;;;2.12;;
13439;SDS011;6792;57.698;11.946;2022-10-16T20:00:29;9.83;;;1.65;;
13439;SDS011;6792;57.698;11.946;2022-10-16T20:02:58;14.05;;;1.87;;
13439;SDS011;6792;57.698;11.946;2022-10-16T20:05:29;11.22;;;2.08;;
13439;SDS011;6792;57.698;11.946;2022-10-16T20:07:57;11.83;;;1.77;;
13439;SDS011;6792;57.698;11.946;2022-10-16T20:10:26;13.32;;;1.80;;
13439;SDS011;6792;57.698;11.946;2022-10-16T20:12:55;22.07;;;2.40;;
13439;SDS011;6792;57.698;11.946;2022-10-16T20:15:24;12.33;;;2.37;;
13439;SDS011;6792;57.698;11.946;2022-10-16T20:17:53;12.88;;;1.80;;
13439;SDS011;6792;57.698;11.946;2022-10-16T20:20:24;19.55;;;2.17;;
13439;SDS011;6792;57.698;11.946;2022-10-16T20:22:53;14.00;;;2.10;;
13439;SDS011;6792;57.698;11.946;2022-10-16T20:25:21;13.20;;;2.15;;
13439;SDS011;6792;57.698;11.946;2022-10-16T20:27:52;10.58;;;1.55;;
13439;SDS011;6792;57.698;11.946;2022-10-16T20:30:21;12.90;;;1.85;;
13439;SDS011;6792;57.698;11.946;2022-10-16T20:32:52;10.60;;;1.95;;
13439;SDS011;6792;57.698;11.946;2022-10-16T20:35:22;11.35;;;1.72;;
13439;SDS011;6792;57.698;11.946;2022-10-16T20:37:51;11.12;;;1.82;;
13439;SDS011;6792;57.698;11.946;2022-10-16T20:40:20;13.08;;;2.00;;
13439;SDS011;6792;57.698;11.946;2022-10-16T20:42:49;12.75;;;1.80;;
13439;SDS011;6792;57.698;11.946;2022-10-16T20:45:18;15.88;;;2.00;;
13439;SDS011;6792;57.698;11.946;2022-10-16T20:47:47;17.25;;;2.17;;
13439;SDS011;6792;57.698;11.946;2022-10-16T20:50:16;15.00;;;2.12;;
13439;SDS011;6792;57.698;11.946;2022-10-16T20:52:45;10.68;;;1.87;;
13439;SDS011;6792;57.698;11.946;2022-10-16T20:55:14;16.07;;;2.55;;
13439;SDS011;6792;57.698;11.946;2022-10-16T20:57:43;18.87;;;2.40;;
13439;SDS011;6792;57.698;11.946;2022-10-16T21:00:13;12.15;;;1.95;;
13439;SDS011;6792;57.698;11.946;2022-10-16T21:02:43;20.37;;;2.20;;
13439;SDS011;6792;57.698;11.946;2022-10-16T21:05:16;11.08;;;2.02;;
13439;SDS011;6792;57.698;11.946;2022-10-16T21:07:45;8.60;;;1.77;;
13439;SDS011;6792;57.698;11.946;2022-10-16T21:10:14;15.60;;;2.08;;
13439;SDS011;6792;57.698;11.946;2022-10-16T21:12:45;12.35;;;2.12;;
13439;SDS011;6792;57.698;11.946;2022-10-16T21:15:15;13.32;;;2.10;;
13439;SDS011;6792;57.698;11.946;2022-10-16T21:17:44;14.60;;;1.85;;
13439;SDS011;6792;57.698;11.946;2022-10-16T21:20:15;14.63;;;1.90;;
13439;SDS011;6792;57.698;11.946;2022-10-16T21:22:44;8.93;;;2.02;;
13439;SDS011;6792;57.698;11.946;2022-10-16T21:25:14;10.20;;;2.22;;